Home > Products > Valid Products > MTR

000
SAUS45 KPUB 031557
MTRSPD
METAR KSPD 031556Z AUTO 25010KT 07/M02 A2978 RMK AO1 SLP073
T00721022





000
SAUS45 KPUB 031458 COR
MTRSPD
METAR KSPD 031456Z AUTO 23010KT 05/M02 A2979 RMK AO1 SLP081
T00501022 53023





000
SAUS45 KPUB 031458 COR
MTRSPD
METAR KSPD 031456Z AUTO 23010KT 05/M02 A2979 RMK AO1 SLP081
T00501022 53023





000
SAUS45 KPUB 031357
MTRSPD
METAR KSPD 031356Z AUTO 26008KT 02/M03 A2976 RMK AO1 SLP075
T00221028





000
SAUS45 KPUB 031357
MTRSPD
METAR KSPD 031356Z AUTO 26008KT 02/M03 A2976 RMK AO1 SLP075
T00221028





000
SAUS45 KPUB 031257
MTRSPD
METAR KSPD 031256Z AUTO 24011KT 03/M03 A2973 RMK AO1 SLP062
T00331028





000
SAUS45 KPUB 031157
MTRSPD
METAR KSPD 031156Z AUTO 25013KT 04/M03 A2971 RMK AO1 SLP053
T00441028 10078 20039 53009





000
SAUS45 KPUB 031057
MTRSPD
METAR KSPD 031056Z AUTO 28014KT 04/M02 A2969 RMK AO1 SLP043
T00441017





000
SAUS45 KPUB 031057
MTRSPD
METAR KSPD 031056Z AUTO 28014KT 04/M02 A2969 RMK AO1 SLP043
T00441017





000
SAUS45 KPUB 030957
MTRSPD
METAR KSPD 030956Z AUTO 27012G21KT 05/M01 A2968 RMK AO1 SLP041
T00501006





000
SAUS45 KPUB 030857
MTRSPD
METAR KSPD 030856Z AUTO 26013KT 06/02 A2968 RMK AO1 SLP040 T00560017
51005





000
SAUS45 KPUB 030757
MTRSPD
METAR KSPD 030756Z AUTO 24014G21KT 06/02 A2968 RMK AO1 PK WND
23030/0711 SLP040 T00610022





000
SAUS45 KPUB 030757
MTRSPD
METAR KSPD 030756Z AUTO 24014G21KT 06/02 A2968 RMK AO1 PK WND
23030/0711 SLP040 T00610022





000
SAUS45 KPUB 030657
MTRSPD
METAR KSPD 030656Z AUTO 25016G24KT 07/03 A2967 RMK AO1 PK WND
23035/0638 SLP038 T00720028 400781050





000
SAUS45 KPUB 030657
MTRSPD
METAR KSPD 030656Z AUTO 25016G24KT 07/03 A2967 RMK AO1 PK WND
23035/0638 SLP038 T00720028 400781050





000
SAUS45 KPUB 030557
MTRSPD
METAR KSPD 030556Z AUTO 23019G28KT 07/02 A2966 RMK AO1 PK WND
22028/0548 SLP036 T00720022 10072 20006 56019





000
SAUS45 KPUB 030557
MTRSPD
METAR KSPD 030556Z AUTO 23019G28KT 07/02 A2966 RMK AO1 PK WND
22028/0548 SLP036 T00720022 10072 20006 56019





000
SAUS45 KPUB 030457
MTRSPD
METAR KSPD 030456Z AUTO 21014G21KT 04/01 A2967 RMK AO1 SLP046
T00440011





000
SAUS45 KPUB 030457
MTRSPD
METAR KSPD 030456Z AUTO 21014G21KT 04/01 A2967 RMK AO1 SLP046
T00440011





000
SAUS45 KPUB 030358
MTRSPD
METAR KSPD 030356Z AUTO 20017KT 01/M01 A2970 RMK AO1 SLP064
T00111006





000
SAUS45 KPUB 030257
MTRSPD
METAR KSPD 030256Z AUTO 19019KT 01/M01 A2973 RMK AO1 PK WND
20029/0157 SLP077 T00061011 58009





000
SAUS45 KPUB 030257
MTRSPD
METAR KSPD 030256Z AUTO 19019KT 01/M01 A2973 RMK AO1 PK WND
20029/0157 SLP077 T00061011 58009





000
SAUS45 KPUB 030157
MTRSPD
METAR KSPD 030156Z AUTO 20024G31KT 01/M01 A2974 RMK AO1 PK WND
19032/0115 SLP080 T00111011





000
SAUS45 KPUB 030057
MTRSPD
METAR KSPD 030056Z AUTO 19026G31KT 01/M01 A2976 RMK AO1 PK WND
19035/0004 SLP088 T00111011





000
SAUS45 KPUB 030057
MTRSPD
METAR KSPD 030056Z AUTO 19026G31KT 01/M01 A2976 RMK AO1 PK WND
19035/0004 SLP088 T00111011





000
SAUS45 KPUB 022357
MTRSPD
METAR KSPD 022356Z AUTO 19025KT 02/M01 A2976 RMK AO1 PK WND
19032/2336 SLP085 T00171011 10028 21006 58033





000
SAUS45 KPUB 022357
MTRSPD
METAR KSPD 022356Z AUTO 19025KT 02/M01 A2976 RMK AO1 PK WND
19032/2336 SLP085 T00171011 10028 21006 58033





000
SAUS45 KPUB 022257
MTRSPD
METAR KSPD 022256Z AUTO 20020G26KT 03/M01 A2980 RMK AO1 PK WND
19027/2239 SLP098 T00281006





000
SAUS45 KPUB 022257
MTRSPD
METAR KSPD 022256Z AUTO 20020G26KT 03/M01 A2980 RMK AO1 PK WND
19027/2239 SLP098 T00281006





000
SAUS45 KPUB 022157
MTRSPD
METAR KSPD 022156Z AUTO 20021G28KT 02/M01 A2983 RMK AO1 PK WND
20032/2132 SLP109 T00221011





000
SAUS45 KPUB 022157
MTRSPD
METAR KSPD 022156Z AUTO 20021G28KT 02/M01 A2983 RMK AO1 PK WND
20032/2132 SLP109 T00221011





000
SAUS45 KPUB 022057
MTRSPD
METAR KSPD 022056Z AUTO 19023G30KT 02/M01 A2987 RMK AO1 PK WND
19032/2016 SLP123 T00171011 56043





000
SAUS45 KPUB 022057
MTRSPD
METAR KSPD 022056Z AUTO 19023G30KT 02/M01 A2987 RMK AO1 PK WND
19032/2016 SLP123 T00171011 56043





000
SAUS45 KPUB 021957
MTRSPD
METAR KSPD 021956Z AUTO 19021G27KT 01/M02 A2991 RMK AO1 PK WND
19033/1937 SLP140 T00111017





000
SAUS45 KPUB 021957
MTRSPD
METAR KSPD 021956Z AUTO 19021G27KT 01/M02 A2991 RMK AO1 PK WND
19033/1937 SLP140 T00111017





000
SAUS45 KPUB 021857
MTRSPD
METAR KSPD 021856Z AUTO 18020G29KT 00/M02 A2997 RMK AO1 PK WND
18032/1841 SLP163 T00001022





000
SAUS45 KPUB 021857
MTRSPD
METAR KSPD 021856Z AUTO 18020G29KT 00/M02 A2997 RMK AO1 PK WND
18032/1841 SLP163 T00001022





000
SAUS45 KPUB 021757
MTRSPD
METAR KSPD 021756Z AUTO 18025G31KT M01/M03 A3001 RMK AO1 PK WND
19031/1750 SLP178 T10061028 11006 21050 58026





000
SAUS45 KPUB 021757
MTRSPD
METAR KSPD 021756Z AUTO 18025G31KT M01/M03 A3001 RMK AO1 PK WND
19031/1750 SLP178 T10061028 11006 21050 58026





000
SAUS45 KPUB 021657
MTRSPD
METAR KSPD 021656Z AUTO 19019G25KT M02/M04 A3007 RMK AO1 PK WND
18030/1622 SLP202 T10221044





000
SAUS45 KPUB 021657
MTRSPD
METAR KSPD 021656Z AUTO 19019G25KT M02/M04 A3007 RMK AO1 PK WND
18030/1622 SLP202 T10221044





000
SAUS45 KPUB 021557
MTRSPD
METAR KSPD 021556Z AUTO 18023KT M03/M05 A3009 RMK AO1 PK WND
19029/1524 SLP210 T10331050





000
SAUS45 KPUB 021457
MTRSPD
METAR KSPD 021456Z AUTO 18020G30KT M04/M05 A3010 RMK AO1 PK WND
18030/1447 SLP215 T10391050 57019





000
SAUS45 KPUB 021358
MTRSPD
METAR KSPD 021356Z AUTO 17017KT M04/M06 A3012 RMK AO1 SLP223
T10441056





000
SAUS45 KPUB 021358
MTRSPD
METAR KSPD 021356Z AUTO 17017KT M04/M06 A3012 RMK AO1 SLP223
T10441056





000
SAUS45 KPUB 021258
MTRSPD
METAR KSPD 021256Z AUTO 17009KT M05/M06 A3014 RMK AO1 SLP232
T10501061





000
SAUS45 KPUB 021158
MTRSPD
METAR KSPD 021156Z AUTO 17011KT M04/M06 A3016 RMK AO1 SLP235
T10441061 11044 21044 56026





000
SAUS45 KPUB 021057
MTRSPD
METAR KSPD 021056Z AUTO 18011KT M04/M06 A3019 RMK AO1 SLP245
T10441061





000
SAUS45 KPUB 020958
MTRSPD
METAR KSPD 020956Z AUTO 19011KT M04/M06 A3022 RMK AO1 SLP256
T10441061





000
SAUS45 KPUB 020958
MTRSPD
METAR KSPD 020956Z AUTO 19011KT M04/M06 A3022 RMK AO1 SLP256
T10441061





000
SAUS45 KPUB 020857
MTRSPD
METAR KSPD 020856Z AUTO 18009KT M04/M06 A3025 RMK AO1 SLP266
T10441061 58019





000
SAUS45 KPUB 020857
MTRSPD
METAR KSPD 020856Z AUTO 18009KT M04/M06 A3025 RMK AO1 SLP266
T10441061 58019





000
SAUS45 KPUB 020757
MTRSPD
METAR KSPD 020756Z AUTO 17009KT M04/M07 A3028 RMK AO1 SLP276
T10441067





000
SAUS45 KPUB 020657
MTRSPD
METAR KSPD 020656Z AUTO 16006KT M04/M06 A3029 RMK AO1 SLP281
T10441061 410171117





000
SAUS45 KPUB 020657
MTRSPD
METAR KSPD 020656Z AUTO 16006KT M04/M06 A3029 RMK AO1 SLP281
T10441061 410171117





000
SAUS45 KPUB 020557
MTRSPD
METAR KSPD 020556Z AUTO 15003KT M04/M06 A3031 RMK AO1 SLP290
T10441061 11028 21044 51006





000
SAUS45 KPUB 020557
MTRSPD
METAR KSPD 020556Z AUTO 15003KT M04/M06 A3031 RMK AO1 SLP290
T10441061 11028 21044 51006





000
SAUS45 KPUB 020457
MTRSPD
METAR KSPD 020456Z AUTO 00000KT M04/M06 A3031 RMK AO1 SLP291
T10441061





000
SAUS45 KPUB 020357
MTRSPD
METAR KSPD 020356Z AUTO 01003KT M04/M06 A3031 RMK AO1 SLP292
T10391061





000
SAUS45 KPUB 020257
MTRSPD
METAR KSPD 020256Z AUTO 01004KT M04/M07 A3029 RMK AO1 SLP288
T10441067 53012





000
SAUS45 KPUB 020157
MTRSPD
METAR KSPD 020156Z AUTO 04006KT M04/M07 A3029 RMK AO1 SLP294
T10391067





000
SAUS45 KPUB 020157
MTRSPD
METAR KSPD 020156Z AUTO 04006KT M04/M07 A3029 RMK AO1 SLP294
T10391067





000
SAUS45 KPUB 020057
MTRSPD
METAR KSPD 020056Z AUTO 07006KT M04/M07 A3025 RMK AO1 SLP281
T10441067





000
SAUS45 KPUB 020057
MTRSPD
METAR KSPD 020056Z AUTO 07006KT M04/M07 A3025 RMK AO1 SLP281
T10441067





000
SAUS45 KPUB 012357
MTRSPD
METAR KSPD 012356Z AUTO 04005KT M03/M07 A3025 RMK AO1 SLP275
T10281067 11017 21033 53009





000
SAUS45 KPUB 012357
MTRSPD
METAR KSPD 012356Z AUTO 04005KT M03/M07 A3025 RMK AO1 SLP275
T10281067 11017 21033 53009





000
SAUS45 KPUB 012257
MTRSPD
METAR KSPD 012256Z AUTO 04006KT M03/M07 A3023 RMK AO1 SLP268
T10281067





000
SAUS45 KPUB 012257
MTRSPD
METAR KSPD 012256Z AUTO 04006KT M03/M07 A3023 RMK AO1 SLP268
T10281067





000
SAUS45 KPUB 012157
MTRSPD
METAR KSPD 012156Z AUTO 02007KT M03/M07 A3024 RMK AO1 SLP270
T10281072





000
SAUS45 KPUB 012157
MTRSPD
METAR KSPD 012156Z AUTO 02007KT M03/M07 A3024 RMK AO1 SLP270
T10281072





000
SAUS45 KPUB 012057
MTRSPD
METAR KSPD 012056Z AUTO 34006KT M02/M07 A3022 RMK AO1 SLP269
T10221072 58002





000
SAUS45 KPUB 012057
MTRSPD
METAR KSPD 012056Z AUTO 34006KT M02/M07 A3022 RMK AO1 SLP269
T10221072 58002





000
SAUS45 KPUB 011957
MTRSPD
METAR KSPD 011956Z AUTO 01008KT M03/M07 A3024 RMK AO1 SLP274
T10281072





000
SAUS45 KPUB 011858
MTRSPD
METAR KSPD 011856Z AUTO 36007KT M03/M07 A3023 RMK AO1 SLP273
T10281072





000
SAUS45 KPUB 011858
MTRSPD
METAR KSPD 011856Z AUTO 36007KT M03/M07 A3023 RMK AO1 SLP273
T10281072





000
SAUS45 KPUB 011757
MTRSPD
METAR KSPD 011756Z AUTO 36008KT M03/M08 A3023 RMK AO1 SLP271
T10331078 11033 21111 50011





000
SAUS45 KPUB 011757
MTRSPD
METAR KSPD 011756Z AUTO 36008KT M03/M08 A3023 RMK AO1 SLP271
T10331078 11033 21111 50011





000
SAUS45 KPUB 011657
MTRSPD
METAR KSPD 011656Z AUTO 35009KT M04/M08 A3023 RMK AO1 SLP271
T10441083





000
SAUS45 KPUB 011657
MTRSPD
METAR KSPD 011656Z AUTO 35009KT M04/M08 A3023 RMK AO1 SLP271
T10441083





000
SAUS45 KPUB 011557
MTRSPD
METAR KSPD 011556Z AUTO 34008KT M05/M08 A3021 RMK AO1 SLP264
T10501083





000
SAUS45 KPUB 011457
MTRSPD
METAR KSPD 011456Z AUTO 35009KT M06/M08 A3019 RMK AO1 SLP257
T10611083 53031





000
SAUS45 KPUB 011457
MTRSPD
METAR KSPD 011456Z AUTO 35009KT M06/M08 A3019 RMK AO1 SLP257
T10611083 53031





000
SAUS45 KPUB 011357
MTRSPD
METAR KSPD 011356Z AUTO 31007KT M11/M12 A3015 RMK AO1 SLP253
T11061122





000
SAUS45 KPUB 011357
MTRSPD
METAR KSPD 011356Z AUTO 31007KT M11/M12 A3015 RMK AO1 SLP253
T11061122





000
SAUS45 KPUB 011257
MTRSPD
METAR KSPD 011256Z AUTO 30004KT M11/M12 A3012 RMK AO1 SLP243
T11061122





000
SAUS45 KPUB 011257
MTRSPD
METAR KSPD 011256Z AUTO 30004KT M11/M12 A3012 RMK AO1 SLP243
T11061122





000
SAUS45 KPUB 011158
MTRSPD
METAR KSPD 011156Z AUTO 34004KT M09/M10 A3009 RMK AO1 SLP224
T10891100 11083 21117 55000





000
SAUS45 KPUB 011057
MTRSPD
METAR KSPD 011056Z AUTO 00000KT M09/M11 A3009 RMK AO1 SLP221
T10891106





000
SAUS45 KPUB 010957
MTRSPD
METAR KSPD 010956Z AUTO 36003KT M09/M10 A3008 RMK AO1 SLP219
T10891100





000
SAUS45 KPUB 010957
MTRSPD
METAR KSPD 010956Z AUTO 36003KT M09/M10 A3008 RMK AO1 SLP219
T10891100





000
SAUS45 KPUB 010858
MTRSPD
METAR KSPD 010856Z AUTO 30005KT M12/M13 A3009 RMK AO1 SLP226
T11171128 53006





000
SAUS45 KPUB 010858
MTRSPD
METAR KSPD 010856Z AUTO 30005KT M12/M13 A3009 RMK AO1 SLP226
T11171128 53006





000
SAUS45 KPUB 010757
MTRSPD
METAR KSPD 010756Z AUTO 29004KT M11/M12 A3008 RMK AO1 SLP223
T11061117





000
SAUS45 KPUB 010657
MTRSPD
METAR KSPD 010656Z AUTO 32004KT M11/M12 A3006 RMK AO1 SLP219
T11061117 410391128





000
SAUS45 KPUB 010657
MTRSPD
METAR KSPD 010656Z AUTO 32004KT M11/M12 A3006 RMK AO1 SLP219
T11061117 410391128





000
SAUS45 KPUB 010558
MTRSPD
METAR KSPD 010556Z AUTO 31004KT M10/M11 A3007 RMK AO1 SLP222
T11001106 11056 21106 51008





000
SAUS45 KPUB 010558
MTRSPD
METAR KSPD 010556Z AUTO 31004KT M10/M11 A3007 RMK AO1 SLP222
T11001106 11056 21106 51008





000
SAUS45 KPUB 010458
MTRSPD
METAR KSPD 010456Z AUTO 01003KT M08/M10 A3006 RMK AO1 SLP218
T10831100





000
SAUS45 KPUB 010458
MTRSPD
METAR KSPD 010456Z AUTO 01003KT M08/M10 A3006 RMK AO1 SLP218
T10831100





000
SAUS45 KPUB 010357
MTRSPD
METAR KSPD 010356Z AUTO 34005KT M07/M09 A3007 RMK AO1 SLP218
T10721089





000
SAUS45 KPUB 010357
MTRSPD
METAR KSPD 010356Z AUTO 34005KT M07/M09 A3007 RMK AO1 SLP218
T10721089





000
SAUS45 KPUB 010258
MTRSPD
METAR KSPD 010256Z AUTO 34006KT M07/M09 A3004 RMK AO1 SLP215
T10671089 53013





000
SAUS45 KPUB 010258
MTRSPD
METAR KSPD 010256Z AUTO 34006KT M07/M09 A3004 RMK AO1 SLP215
T10671089 53013





000
SAUS45 KPUB 010157
MTRSPD
METAR KSPD 010156Z AUTO 35008KT M07/M10 A3002 RMK AO1 SLP210
T10721100





000
SAUS45 KPUB 010058
MTRSPD
METAR KSPD 010056Z AUTO 35006KT M08/M11 A3001 RMK AO1 SLP208
T10831106





000
SAUS45 KPUB 010058
MTRSPD
METAR KSPD 010056Z AUTO 35006KT M08/M11 A3001 RMK AO1 SLP208
T10831106





000
SAUS45 KPUB 282357
MTRSPD
METAR KSPD 282356Z AUTO 05004KT M06/M09 A3000 RMK AO1 SLP199
T10611094 11039 21072 52007





000
SAUS45 KPUB 282357
MTRSPD
METAR KSPD 282356Z AUTO 05004KT M06/M09 A3000 RMK AO1 SLP199
T10611094 11039 21072 52007





000
SAUS45 KPUB 282257
MTRSPD
METAR KSPD 282256Z AUTO 35005KT M05/M09 A2999 RMK AO1 SLP194
T10501094





000
SAUS45 KPUB 282257
MTRSPD
METAR KSPD 282256Z AUTO 35005KT M05/M09 A2999 RMK AO1 SLP194
T10501094





000
SAUS45 KPUB 282157
MTRSPD
METAR KSPD 282156Z AUTO 01006KT M05/M09 A2998 RMK AO1 SLP191
T10501094





000
SAUS45 KPUB 282057
MTRSPD
METAR KSPD 282056Z AUTO 34003KT M04/M10 A2997 RMK AO1 SLP186
T10441100 56009





000
SAUS45 KPUB 282057
MTRSPD
METAR KSPD 282056Z AUTO 34003KT M04/M10 A2997 RMK AO1 SLP186
T10441100 56009





000
SAUS45 KPUB 281957
MTRSPD
METAR KSPD 281956Z AUTO 00000KT M06/M09 A2999 RMK AO1 SLP193
T10561094





000
SAUS45 KPUB 281857
MTRSPD
METAR KSPD 281856Z AUTO 17007KT M07/M11 A2998 RMK AO1 SLP194
T10671106





000
SAUS45 KPUB 281857
MTRSPD
METAR KSPD 281856Z AUTO 17007KT M07/M11 A2998 RMK AO1 SLP194
T10671106





000
SAUS45 KPUB 281757
MTRSPD
METAR KSPD 281756Z AUTO 20007KT M07/M11 A3000 RMK AO1 SLP204
T10721106 11072 21122 50003





000
SAUS45 KPUB 281757
MTRSPD
METAR KSPD 281756Z AUTO 20007KT M07/M11 A3000 RMK AO1 SLP204
T10721106 11072 21122 50003





000
SAUS45 KPUB 281658
MTRSPD
METAR KSPD 281656Z AUTO 20013KT M08/M11 A3001 RMK AO1 SLP208
T10831111





000
SAUS45 KPUB 281658
MTRSPD
METAR KSPD 281656Z AUTO 20013KT M08/M11 A3001 RMK AO1 SLP208
T10831111





    US Dept of Commerce
    National Oceanic and Atmospheric Administration
    National Weather Service
    1325 East West Highway
    Silver Spring, MD 20910
    Page Author: NWS Internet Services Team
Disclaimer
Information Quality
Credits
Glossary
Privacy Policy
Freedom of Information Act (FOIA)
About Us
Career Opportunities